sensor_id;sensor_type;location;lat;lon;timestamp;temperature;humidity
64652;HTU21D;51062;45.120;37.660;2022-10-16T00:02:07;7.70;63.93
64652;HTU21D;51062;45.120;37.660;2022-10-16T00:04:32;7.72;63.96
64652;HTU21D;51062;45.120;37.660;2022-10-16T00:06:59;7.73;63.96
64652;HTU21D;51062;45.120;37.660;2022-10-16T00:09:25;7.72;63.93
64652;HTU21D;51062;45.120;37.660;2022-10-16T00:11:51;7.71;63.88
64652;HTU21D;51062;45.120;37.660;2022-10-16T00:14:17;7.69;63.91
64652;HTU21D;51062;45.120;37.660;2022-10-16T00:16:43;7.67;63.89
64652;HTU21D;51062;45.120;37.660;2022-10-16T00:19:10;7.64;63.92
64652;HTU21D;51062;45.120;37.660;2022-10-16T00:21:38;7.61;63.94
64652;HTU21D;51062;45.120;37.660;2022-10-16T00:24:23;7.58;63.94
64652;HTU21D;51062;45.120;37.660;2022-10-16T00:26:49;7.58;63.93
64652;HTU21D;51062;45.120;37.660;2022-10-16T00:29:16;7.55;63.95
64652;HTU21D;51062;45.120;37.660;2022-10-16T00:31:42;7.53;63.98
64652;HTU21D;51062;45.120;37.660;2022-10-16T00:34:08;7.53;64.00
64652;HTU21D;51062;45.120;37.660;2022-10-16T00:36:34;7.53;64.10
64652;HTU21D;51062;45.120;37.660;2022-10-16T00:39:00;7.54;64.15
64652;HTU21D;51062;45.120;37.660;2022-10-16T00:41:27;7.57;64.14
64652;HTU21D;51062;45.120;37.660;2022-10-16T00:43:56;7.61;64.12
64652;HTU21D;51062;45.120;37.660;2022-10-16T00:46:38;7.65;64.13
64652;HTU21D;51062;45.120;37.660;2022-10-16T00:49:16;7.68;64.09
64652;HTU21D;51062;45.120;37.660;2022-10-16T00:51:47;7.69;64.04
64652;HTU21D;51062;45.120;37.660;2022-10-16T00:54:23;7.70;64.08
64652;HTU21D;51062;45.120;37.660;2022-10-16T00:56:50;7.71;64.05
64652;HTU21D;51062;45.120;37.660;2022-10-16T00:59:20;7.72;64.08
64652;HTU21D;51062;45.120;37.660;2022-10-16T01:01:49;7.73;64.11
64652;HTU21D;51062;45.120;37.660;2022-10-16T01:04:15;7.74;64.11
64652;HTU21D;51062;45.120;37.660;2022-10-16T01:09:42;7.81;64.21
64652;HTU21D;51062;45.120;37.660;2022-10-16T01:15:18;7.85;64.11
64652;HTU21D;51062;45.120;37.660;2022-10-16T01:17:56;7.88;64.11
64652;HTU21D;51062;45.120;37.660;2022-10-16T01:20:36;7.88;64.17
64652;HTU21D;51062;45.120;37.660;2022-10-16T01:28:57;7.85;64.21
64652;HTU21D;51062;45.120;37.660;2022-10-16T01:31:30;7.83;64.14
64652;HTU21D;51062;45.120;37.660;2022-10-16T01:34:19;7.79;64.26
64652;HTU21D;51062;45.120;37.660;2022-10-16T01:36:56;7.76;64.21
64652;HTU21D;51062;45.120;37.660;2022-10-16T01:39:29;7.73;64.26
64652;HTU21D;51062;45.120;37.660;2022-10-16T01:42:09;7.69;64.37
64652;HTU21D;51062;45.120;37.660;2022-10-16T01:44:37;7.63;64.37
64652;HTU21D;51062;45.120;37.660;2022-10-16T01:47:08;7.59;64.47
64652;HTU21D;51062;45.120;37.660;2022-10-16T01:49:36;7.57;64.54
64652;HTU21D;51062;45.120;37.660;2022-10-16T01:52:07;7.54;64.60
64652;HTU21D;51062;45.120;37.660;2022-10-16T01:54:37;7.49;64.67
64652;HTU21D;51062;45.120;37.660;2022-10-16T01:57:05;7.47;64.68
64652;HTU21D;51062;45.120;37.660;2022-10-16T01:59:45;7.44;64.76
64652;HTU21D;51062;45.120;37.660;2022-10-16T02:02:13;7.42;64.76
64652;HTU21D;51062;45.120;37.660;2022-10-16T02:04:45;7.40;64.85
64652;HTU21D;51062;45.120;37.660;2022-10-16T02:07:12;7.35;64.84
64652;HTU21D;51062;45.120;37.660;2022-10-16T02:09:38;7.32;64.88
64652;HTU21D;51062;45.120;37.660;2022-10-16T02:12:15;7.29;64.95
64652;HTU21D;51062;45.120;37.660;2022-10-16T02:14:45;7.26;64.91
64652;HTU21D;51062;45.120;37.660;2022-10-16T02:17:14;7.23;64.92
64652;HTU21D;51062;45.120;37.660;2022-10-16T02:19:41;7.19;64.93
64652;HTU21D;51062;45.120;37.660;2022-10-16T02:22:11;7.18;64.95
64652;HTU21D;51062;45.120;37.660;2022-10-16T02:24:53;7.16;65.06
64652;HTU21D;51062;45.120;37.660;2022-10-16T02:30:07;7.13;65.08
64652;HTU21D;51062;45.120;37.660;2022-10-16T02:32:37;7.12;65.01
64652;HTU21D;51062;45.120;37.660;2022-10-16T02:35:06;7.08;65.04
64652;HTU21D;51062;45.120;37.660;2022-10-16T02:37:33;7.04;65.05
64652;HTU21D;51062;45.120;37.660;2022-10-16T02:39:59;7.01;65.13
64652;HTU21D;51062;45.120;37.660;2022-10-16T02:42:33;6.98;65.21
64652;HTU21D;51062;45.120;37.660;2022-10-16T02:44:59;6.94;65.19
64652;HTU21D;51062;45.120;37.660;2022-10-16T02:47:26;6.91;65.21
64652;HTU21D;51062;45.120;37.660;2022-10-16T02:50:11;6.86;65.28
64652;HTU21D;51062;45.120;37.660;2022-10-16T02:52:39;6.84;65.20
64652;HTU21D;51062;45.120;37.660;2022-10-16T02:55:25;6.80;65.17
64652;HTU21D;51062;45.120;37.660;2022-10-16T02:57:51;6.78;65.16
64652;HTU21D;51062;45.120;37.660;2022-10-16T03:00:18;6.73;65.17
64652;HTU21D;51062;45.120;37.660;2022-10-16T03:02:44;6.69;65.19
64652;HTU21D;51062;45.120;37.660;2022-10-16T03:05:10;6.67;65.20
64652;HTU21D;51062;45.120;37.660;2022-10-16T03:07:36;6.64;65.23
64652;HTU21D;51062;45.120;37.660;2022-10-16T03:10:03;6.63;65.29
64652;HTU21D;51062;45.120;37.660;2022-10-16T03:12:29;6.60;65.33
64652;HTU21D;51062;45.120;37.660;2022-10-16T03:14:57;6.58;65.35
64652;HTU21D;51062;45.120;37.660;2022-10-16T03:17:24;6.57;65.38
64652;HTU21D;51062;45.120;37.660;2022-10-16T03:19:50;6.55;65.37
64652;HTU21D;51062;45.120;37.660;2022-10-16T03:22:16;6.53;65.44
64652;HTU21D;51062;45.120;37.660;2022-10-16T03:24:43;6.51;65.43
64652;HTU21D;51062;45.120;37.660;2022-10-16T03:27:09;6.50;65.46
64652;HTU21D;51062;45.120;37.660;2022-10-16T03:29:35;6.48;65.44
64652;HTU21D;51062;45.120;37.660;2022-10-16T03:32:02;6.44;65.46
64652;HTU21D;51062;45.120;37.660;2022-10-16T03:34:28;6.44;65.47
64652;HTU21D;51062;45.120;37.660;2022-10-16T03:36:55;6.40;65.46
64652;HTU21D;51062;45.120;37.660;2022-10-16T03:39:21;6.41;65.49
64652;HTU21D;51062;45.120;37.660;2022-10-16T03:41:47;6.42;65.50
64652;HTU21D;51062;45.120;37.660;2022-10-16T03:44:13;6.43;65.50
64652;HTU21D;51062;45.120;37.660;2022-10-16T03:46:40;6.45;65.47
64652;HTU21D;51062;45.120;37.660;2022-10-16T03:49:06;6.46;65.47
64652;HTU21D;51062;45.120;37.660;2022-10-16T03:51:32;6.45;65.46
64652;HTU21D;51062;45.120;37.660;2022-10-16T03:53:58;6.45;65.48
64652;HTU21D;51062;45.120;37.660;2022-10-16T03:56:25;6.46;65.45
64652;HTU21D;51062;45.120;37.660;2022-10-16T03:58:51;6.49;65.48
64652;HTU21D;51062;45.120;37.660;2022-10-16T04:01:17;6.51;65.50
64652;HTU21D;51062;45.120;37.660;2022-10-16T04:03:43;6.56;65.58
64652;HTU21D;51062;45.120;37.660;2022-10-16T04:06:09;6.63;65.63
64652;HTU21D;51062;45.120;37.660;2022-10-16T04:08:36;6.72;65.69
64652;HTU21D;51062;45.120;37.660;2022-10-16T04:11:03;6.86;65.70
64652;HTU21D;51062;45.120;37.660;2022-10-16T04:13:29;7.03;65.64
64652;HTU21D;51062;45.120;37.660;2022-10-16T04:15:55;7.15;65.44
64652;HTU21D;51062;45.120;37.660;2022-10-16T04:18:21;7.23;65.34
64652;HTU21D;51062;45.120;37.660;2022-10-16T04:20:47;7.29;65.28
64652;HTU21D;51062;45.120;37.660;2022-10-16T04:23:13;7.31;65.37
64652;HTU21D;51062;45.120;37.660;2022-10-16T04:25:39;7.31;65.40
64652;HTU21D;51062;45.120;37.660;2022-10-16T04:28:05;7.30;65.42
64652;HTU21D;51062;45.120;37.660;2022-10-16T04:30:32;7.28;65.48
64652;HTU21D;51062;45.120;37.660;2022-10-16T04:32:59;7.27;65.53
64652;HTU21D;51062;45.120;37.660;2022-10-16T04:35:25;7.26;65.70
64652;HTU21D;51062;45.120;37.660;2022-10-16T04:37:51;7.29;65.85
64652;HTU21D;51062;45.120;37.660;2022-10-16T04:40:17;7.31;65.94
64652;HTU21D;51062;45.120;37.660;2022-10-16T04:42:43;7.39;65.98
64652;HTU21D;51062;45.120;37.660;2022-10-16T04:45:09;7.48;65.97
64652;HTU21D;51062;45.120;37.660;2022-10-16T04:47:35;7.59;66.02
64652;HTU21D;51062;45.120;37.660;2022-10-16T04:50:02;7.67;66.06
64652;HTU21D;51062;45.120;37.660;2022-10-16T04:52:28;7.75;66.07
64652;HTU21D;51062;45.120;37.660;2022-10-16T04:54:55;7.86;66.08
64652;HTU21D;51062;45.120;37.660;2022-10-16T04:57:26;7.94;66.14
64652;HTU21D;51062;45.120;37.660;2022-10-16T04:59:53;8.05;66.16
64652;HTU21D;51062;45.120;37.660;2022-10-16T05:02:19;8.16;66.17
64652;HTU21D;51062;45.120;37.660;2022-10-16T05:04:45;8.24;66.14
64652;HTU21D;51062;45.120;37.660;2022-10-16T05:07:11;8.34;66.14
64652;HTU21D;51062;45.120;37.660;2022-10-16T05:09:37;8.46;66.22
64652;HTU21D;51062;45.120;37.660;2022-10-16T05:12:04;8.59;66.28
64652;HTU21D;51062;45.120;37.660;2022-10-16T05:14:30;8.74;66.36
64652;HTU21D;51062;45.120;37.660;2022-10-16T05:16:57;8.86;66.61
64652;HTU21D;51062;45.120;37.660;2022-10-16T05:19:23;9.00;66.38
64652;HTU21D;51062;45.120;37.660;2022-10-16T05:21:49;9.14;66.15
64652;HTU21D;51062;45.120;37.660;2022-10-16T05:24:16;9.24;66.06
64652;HTU21D;51062;45.120;37.660;2022-10-16T05:26:42;9.36;66.05
64652;HTU21D;51062;45.120;37.660;2022-10-16T05:29:09;9.47;65.96
64652;HTU21D;51062;45.120;37.660;2022-10-16T05:31:35;9.56;65.88
64652;HTU21D;51062;45.120;37.660;2022-10-16T05:34:02;9.66;65.86
64652;HTU21D;51062;45.120;37.660;2022-10-16T05:36:28;9.75;65.78
64652;HTU21D;51062;45.120;37.660;2022-10-16T05:38:54;9.84;65.83
64652;HTU21D;51062;45.120;37.660;2022-10-16T05:41:20;9.90;65.82
64652;HTU21D;51062;45.120;37.660;2022-10-16T05:44:07;9.98;66.00
64652;HTU21D;51062;45.120;37.660;2022-10-16T05:46:33;10.06;65.76
64652;HTU21D;51062;45.120;37.660;2022-10-16T05:48:59;10.12;65.78
64652;HTU21D;51062;45.120;37.660;2022-10-16T05:51:26;10.20;65.75
64652;HTU21D;51062;45.120;37.660;2022-10-16T05:53:53;10.28;65.79
64652;HTU21D;51062;45.120;37.660;2022-10-16T05:56:19;10.34;65.75
64652;HTU21D;51062;45.120;37.660;2022-10-16T05:58:45;10.39;65.66
64652;HTU21D;51062;45.120;37.660;2022-10-16T06:01:20;10.44;65.62
64652;HTU21D;51062;45.120;37.660;2022-10-16T06:03:51;10.51;65.69
64652;HTU21D;51062;45.120;37.660;2022-10-16T06:06:19;10.56;65.75
64652;HTU21D;51062;45.120;37.660;2022-10-16T06:08:47;10.63;65.68
64652;HTU21D;51062;45.120;37.660;2022-10-16T06:11:15;10.70;65.69
64652;HTU21D;51062;45.120;37.660;2022-10-16T06:13:42;10.78;65.68
64652;HTU21D;51062;45.120;37.660;2022-10-16T06:16:10;10.85;65.61
64652;HTU21D;51062;45.120;37.660;2022-10-16T06:18:38;10.94;65.55
64652;HTU21D;51062;45.120;37.660;2022-10-16T06:21:14;10.98;65.56
64652;HTU21D;51062;45.120;37.660;2022-10-16T06:23:42;11.04;65.48
64652;HTU21D;51062;45.120;37.660;2022-10-16T06:26:09;11.08;65.46
64652;HTU21D;51062;45.120;37.660;2022-10-16T06:28:37;11.13;65.48
64652;HTU21D;51062;45.120;37.660;2022-10-16T06:31:04;11.22;65.50
64652;HTU21D;51062;45.120;37.660;2022-10-16T06:33:31;11.30;65.46
64652;HTU21D;51062;45.120;37.660;2022-10-16T06:36:04;11.39;65.37
64652;HTU21D;51062;45.120;37.660;2022-10-16T06:38:31;11.45;65.31
64652;HTU21D;51062;45.120;37.660;2022-10-16T06:40:58;11.51;65.24
64652;HTU21D;51062;45.120;37.660;2022-10-16T06:43:25;11.53;65.25
64652;HTU21D;51062;45.120;37.660;2022-10-16T06:45:55;11.53;65.21
64652;HTU21D;51062;45.120;37.660;2022-10-16T06:48:23;11.53;65.24
64652;HTU21D;51062;45.120;37.660;2022-10-16T06:50:58;11.54;65.27
64652;HTU21D;51062;45.120;37.660;2022-10-16T06:53:25;11.61;65.27
64652;HTU21D;51062;45.120;37.660;2022-10-16T06:55:52;11.69;65.23
64652;HTU21D;51062;45.120;37.660;2022-10-16T06:58:18;11.76;65.24
64652;HTU21D;51062;45.120;37.660;2022-10-16T07:00:44;11.85;65.21
64652;HTU21D;51062;45.120;37.660;2022-10-16T07:03:10;11.96;65.21
64652;HTU21D;51062;45.120;37.660;2022-10-16T07:05:40;12.10;65.20
64652;HTU21D;51062;45.120;37.660;2022-10-16T07:08:07;12.23;65.11
64652;HTU21D;51062;45.120;37.660;2022-10-16T07:10:33;12.36;65.00
64652;HTU21D;51062;45.120;37.660;2022-10-16T07:13:00;12.43;64.88
64652;HTU21D;51062;45.120;37.660;2022-10-16T07:15:26;12.47;64.81
64652;HTU21D;51062;45.120;37.660;2022-10-16T07:17:53;12.47;64.79
64652;HTU21D;51062;45.120;37.660;2022-10-16T07:20:19;12.47;64.85
64652;HTU21D;51062;45.120;37.660;2022-10-16T07:22:46;12.51;64.88
64652;HTU21D;51062;45.120;37.660;2022-10-16T07:25:12;12.56;64.88
64652;HTU21D;51062;45.120;37.660;2022-10-16T07:27:38;12.57;64.82
64652;HTU21D;51062;45.120;37.660;2022-10-16T07:30:05;12.62;64.82
64652;HTU21D;51062;45.120;37.660;2022-10-16T07:32:33;12.67;64.85
64652;HTU21D;51062;45.120;37.660;2022-10-16T07:34:59;12.76;64.84
64652;HTU21D;51062;45.120;37.660;2022-10-16T07:37:25;0.00;0.00
64652;HTU21D;51062;45.120;37.660;2022-10-16T07:39:51;12.95;64.75
64652;HTU21D;51062;45.120;37.660;2022-10-16T07:42:18;13.02;0.00
64652;HTU21D;51062;45.120;37.660;2022-10-16T07:44:45;13.09;0.00
64652;HTU21D;51062;45.120;37.660;2022-10-16T07:47:14;13.17;64.56
64652;HTU21D;51062;45.120;37.660;2022-10-16T07:49:42;13.21;64.50
64652;HTU21D;51062;45.120;37.660;2022-10-16T07:52:08;13.26;64.49
64652;HTU21D;51062;45.120;37.660;2022-10-16T07:54:34;13.30;64.39
64652;HTU21D;51062;45.120;37.660;2022-10-16T07:57:00;13.33;64.44
64652;HTU21D;51062;45.120;37.660;2022-10-16T07:59:26;0.00;64.52
64652;HTU21D;51062;45.120;37.660;2022-10-16T08:01:52;13.50;64.46
64652;HTU21D;51062;45.120;37.660;2022-10-16T08:04:18;13.62;64.39
64652;HTU21D;51062;45.120;37.660;2022-10-16T08:06:45;0.00;0.00
64652;HTU21D;51062;45.120;37.660;2022-10-16T08:09:11;0.00;64.26
64652;HTU21D;51062;45.120;37.660;2022-10-16T08:11:37;13.84;64.27
64652;HTU21D;51062;45.120;37.660;2022-10-16T08:14:03;13.96;0.00
64652;HTU21D;51062;45.120;37.660;2022-10-16T08:16:29;14.08;64.17
64652;HTU21D;51062;45.120;37.660;2022-10-16T08:18:55;14.15;63.99
64652;HTU21D;51062;45.120;37.660;2022-10-16T08:21:22;14.13;63.79
64652;HTU21D;51062;45.120;37.660;2022-10-16T08:23:50;14.07;63.78
64652;HTU21D;51062;45.120;37.660;2022-10-16T08:26:16;14.01;63.88
64652;HTU21D;51062;45.120;37.660;2022-10-16T08:28:42;14.00;64.01
64652;HTU21D;51062;45.120;37.660;2022-10-16T08:31:13;14.09;64.14
64652;HTU21D;51062;45.120;37.660;2022-10-16T08:33:41;14.20;64.07
64652;HTU21D;51062;45.120;37.660;2022-10-16T08:36:09;14.32;63.97
64652;HTU21D;51062;45.120;37.660;2022-10-16T08:38:36;14.44;63.97
64652;HTU21D;51062;45.120;37.660;2022-10-16T08:41:20;14.62;63.91
64652;HTU21D;51062;45.120;37.660;2022-10-16T08:49:58;15.09;63.08
64652;HTU21D;51062;45.120;37.660;2022-10-16T08:52:35;15.14;62.98
64652;HTU21D;51062;45.120;37.660;2022-10-16T08:55:05;15.17;62.79
64652;HTU21D;51062;45.120;37.660;2022-10-16T08:57:31;15.23;62.76
64652;HTU21D;51062;45.120;37.660;2022-10-16T09:00:00;15.25;62.73
64652;HTU21D;51062;45.120;37.660;2022-10-16T09:02:45;15.30;62.86
64652;HTU21D;51062;45.120;37.660;2022-10-16T09:05:44;15.43;62.83
64652;HTU21D;51062;45.120;37.660;2022-10-16T09:16:27;15.74;62.55
64652;HTU21D;51062;45.120;37.660;2022-10-16T09:21:29;15.82;62.51
64652;HTU21D;51062;45.120;37.660;2022-10-16T09:24:20;15.96;62.63
64652;HTU21D;51062;45.120;37.660;2022-10-16T09:26:47;16.10;62.49
64652;HTU21D;51062;45.120;37.660;2022-10-16T09:29:17;16.18;62.37
64652;HTU21D;51062;45.120;37.660;2022-10-16T09:31:46;16.26;62.35
64652;HTU21D;51062;45.120;37.660;2022-10-16T09:34:33;16.33;62.31
64652;HTU21D;51062;45.120;37.660;2022-10-16T09:37:03;16.41;62.30
64652;HTU21D;51062;45.120;37.660;2022-10-16T09:39:29;16.49;62.23
64652;HTU21D;51062;45.120;37.660;2022-10-16T09:41:56;16.54;62.12
64652;HTU21D;51062;45.120;37.660;2022-10-16T09:44:30;16.56;62.13
64652;HTU21D;51062;45.120;37.660;2022-10-16T09:47:14;16.61;62.17
64652;HTU21D;51062;45.120;37.660;2022-10-16T09:50:00;16.65;62.11
64652;HTU21D;51062;45.120;37.660;2022-10-16T09:52:32;16.64;61.95
64652;HTU21D;51062;45.120;37.660;2022-10-16T09:55:01;16.62;61.95
64652;HTU21D;51062;45.120;37.660;2022-10-16T09:57:27;16.59;61.97
64652;HTU21D;51062;45.120;37.660;2022-10-16T09:59:57;16.56;61.99
64652;HTU21D;51062;45.120;37.660;2022-10-16T10:02:34;16.57;62.05
64652;HTU21D;51062;45.120;37.660;2022-10-16T10:05:01;16.60;62.07
64652;HTU21D;51062;45.120;37.660;2022-10-16T10:07:31;16.65;61.98
64652;HTU21D;51062;45.120;37.660;2022-10-16T10:10:03;16.69;61.92
64652;HTU21D;51062;45.120;37.660;2022-10-16T10:12:30;16.70;61.93
64652;HTU21D;51062;45.120;37.660;2022-10-16T10:15:11;16.78;62.09
64652;HTU21D;51062;45.120;37.660;2022-10-16T10:17:52;16.90;62.10
64652;HTU21D;51062;45.120;37.660;2022-10-16T10:22:56;17.20;61.99
64652;HTU21D;51062;45.120;37.660;2022-10-16T10:25:32;17.38;61.98
64652;HTU21D;51062;45.120;37.660;2022-10-16T10:28:07;17.59;61.79
64652;HTU21D;51062;45.120;37.660;2022-10-16T10:30:55;17.73;61.62
64652;HTU21D;51062;45.120;37.660;2022-10-16T10:43:52;17.68;61.34
64652;HTU21D;51062;45.120;37.660;2022-10-16T10:46:34;17.70;61.41
64652;HTU21D;51062;45.120;37.660;2022-10-16T10:55:27;17.61;61.31
64652;HTU21D;51062;45.120;37.660;2022-10-16T11:06:30;17.66;61.44
64652;HTU21D;51062;45.120;37.660;2022-10-16T11:11:56;17.79;61.31
64652;HTU21D;51062;45.120;37.660;2022-10-16T11:14:30;17.83;61.29
64652;HTU21D;51062;45.120;37.660;2022-10-16T11:17:19;17.84;61.17
64652;HTU21D;51062;45.120;37.660;2022-10-16T11:19:58;17.82;61.18
64652;HTU21D;51062;45.120;37.660;2022-10-16T11:22:42;17.80;61.18
64652;HTU21D;51062;45.120;37.660;2022-10-16T11:25:18;17.79;61.26
64652;HTU21D;51062;45.120;37.660;2022-10-16T11:28:03;17.78;61.31
64652;HTU21D;51062;45.120;37.660;2022-10-16T11:30:40;17.79;61.34
64652;HTU21D;51062;45.120;37.660;2022-10-16T11:33:32;17.81;61.34
64652;HTU21D;51062;45.120;37.660;2022-10-16T11:36:53;17.83;61.26
64652;HTU21D;51062;45.120;37.660;2022-10-16T11:39:24;17.79;61.29
64652;HTU21D;51062;45.120;37.660;2022-10-16T11:42:11;17.77;61.25
64652;HTU21D;51062;45.120;37.660;2022-10-16T11:55:38;17.56;0.00
64652;HTU21D;51062;45.120;37.660;2022-10-16T11:58:26;17.53;61.50
64652;HTU21D;51062;45.120;37.660;2022-10-16T12:01:19;17.52;61.52
64652;HTU21D;51062;45.120;37.660;2022-10-16T12:04:06;17.52;61.57
64652;HTU21D;51062;45.120;37.660;2022-10-16T12:06:58;17.54;61.57
64652;HTU21D;51062;45.120;37.660;2022-10-16T12:09:30;17.55;61.56
64652;HTU21D;51062;45.120;37.660;2022-10-16T12:11:57;17.55;61.55
64652;HTU21D;51062;45.120;37.660;2022-10-16T12:16:54;17.58;61.58
64652;HTU21D;51062;45.120;37.660;2022-10-16T12:19:22;17.59;61.59
64652;HTU21D;51062;45.120;37.660;2022-10-16T12:21:50;17.59;61.58
64652;HTU21D;51062;45.120;37.660;2022-10-16T12:24:32;17.58;61.59
64652;HTU21D;51062;45.120;37.660;2022-10-16T12:26:59;17.55;61.57
64652;HTU21D;51062;45.120;37.660;2022-10-16T12:29:39;17.53;61.60
64652;HTU21D;51062;45.120;37.660;2022-10-16T12:32:41;17.52;61.58
64652;HTU21D;51062;45.120;37.660;2022-10-16T12:35:19;17.48;61.60
64652;HTU21D;51062;45.120;37.660;2022-10-16T12:37:47;17.45;61.63
64652;HTU21D;51062;45.120;37.660;2022-10-16T12:40:23;17.41;61.67
64652;HTU21D;51062;45.120;37.660;2022-10-16T12:42:50;17.39;61.69
64652;HTU21D;51062;45.120;37.660;2022-10-16T12:45:26;17.38;61.73
64652;HTU21D;51062;45.120;37.660;2022-10-16T12:47:54;17.41;61.70
64652;HTU21D;51062;45.120;37.660;2022-10-16T12:50:33;17.39;61.69
64652;HTU21D;51062;45.120;37.660;2022-10-16T12:53:01;17.39;61.69
64652;HTU21D;51062;45.120;37.660;2022-10-16T12:55:40;17.39;61.70
64652;HTU21D;51062;45.120;37.660;2022-10-16T13:00:57;17.38;61.68
64652;HTU21D;51062;45.120;37.660;2022-10-16T13:11:58;17.25;61.70
64652;HTU21D;51062;45.120;37.660;2022-10-16T13:25:17;17.21;61.83
64652;HTU21D;51062;45.120;37.660;2022-10-16T13:27:56;17.20;61.80
64652;HTU21D;51062;45.120;37.660;2022-10-16T13:33:12;17.19;61.79
64652;HTU21D;51062;45.120;37.660;2022-10-16T13:35:54;17.16;61.81
64652;HTU21D;51062;45.120;37.660;2022-10-16T13:38:23;17.13;61.79
64652;HTU21D;51062;45.120;37.660;2022-10-16T13:43:28;17.10;61.85
64652;HTU21D;51062;45.120;37.660;2022-10-16T13:46:12;17.09;61.86
64652;HTU21D;51062;45.120;37.660;2022-10-16T13:48:39;17.06;61.83
64652;HTU21D;51062;45.120;37.660;2022-10-16T13:51:16;17.03;61.87
64652;HTU21D;51062;45.120;37.660;2022-10-16T13:53:45;17.02;61.86
64652;HTU21D;51062;45.120;37.660;2022-10-16T13:56:17;16.99;61.90
64652;HTU21D;51062;45.120;37.660;2022-10-16T13:58:44;16.96;61.91
64652;HTU21D;51062;45.120;37.660;2022-10-16T14:01:20;16.94;61.95
64652;HTU21D;51062;45.120;37.660;2022-10-16T14:03:49;16.92;61.96
64652;HTU21D;51062;45.120;37.660;2022-10-16T14:06:20;16.87;61.97
64652;HTU21D;51062;45.120;37.660;2022-10-16T14:11:25;16.85;62.02
64652;HTU21D;51062;45.120;37.660;2022-10-16T14:13:52;16.84;62.02
64652;HTU21D;51062;45.120;37.660;2022-10-16T14:16:40;16.79;62.08
64652;HTU21D;51062;45.120;37.660;2022-10-16T14:19:13;16.80;62.05
64652;HTU21D;51062;45.120;37.660;2022-10-16T14:21:41;16.77;62.03
64652;HTU21D;51062;45.120;37.660;2022-10-16T14:24:12;16.77;62.08
64652;HTU21D;51062;45.120;37.660;2022-10-16T14:26:43;16.73;62.08
64652;HTU21D;51062;45.120;37.660;2022-10-16T14:29:15;16.72;62.08
64652;HTU21D;51062;45.120;37.660;2022-10-16T14:32:20;16.67;62.10
64652;HTU21D;51062;45.120;37.660;2022-10-16T14:34:39;16.64;62.10
64652;HTU21D;51062;45.120;37.660;2022-10-16T14:39:39;16.56;62.15
64652;HTU21D;51062;45.120;37.660;2022-10-16T14:42:14;16.52;62.19
64652;HTU21D;51062;45.120;37.660;2022-10-16T14:44:42;16.49;62.19
64652;HTU21D;51062;45.120;37.660;2022-10-16T14:47:13;16.45;62.25
64652;HTU21D;51062;45.120;37.660;2022-10-16T14:49:41;16.42;62.28
64652;HTU21D;51062;45.120;37.660;2022-10-16T14:52:12;16.39;62.30
64652;HTU21D;51062;45.120;37.660;2022-10-16T14:54:38;16.36;62.31
64652;HTU21D;51062;45.120;37.660;2022-10-16T14:57:05;16.34;62.33
64652;HTU21D;51062;45.120;37.660;2022-10-16T14:59:37;16.31;62.34
64652;HTU21D;51062;45.120;37.660;2022-10-16T15:04:49;16.25;62.37
64652;HTU21D;51062;45.120;37.660;2022-10-16T15:07:15;16.21;62.41
64652;HTU21D;51062;45.120;37.660;2022-10-16T15:09:41;16.18;62.41
64652;HTU21D;51062;45.120;37.660;2022-10-16T15:12:07;16.16;62.44
64652;HTU21D;51062;45.120;37.660;2022-10-16T15:14:33;16.14;62.44
64652;HTU21D;51062;45.120;37.660;2022-10-16T15:16:59;16.11;62.44
64652;HTU21D;51062;45.120;37.660;2022-10-16T15:19:26;16.08;62.45
64652;HTU21D;51062;45.120;37.660;2022-10-16T15:21:52;16.05;62.50
64652;HTU21D;51062;45.120;37.660;2022-10-16T15:24:18;16.01;62.51
64652;HTU21D;51062;45.120;37.660;2022-10-16T15:26:44;16.00;62.50
64652;HTU21D;51062;45.120;37.660;2022-10-16T15:29:12;15.99;62.49
64652;HTU21D;51062;45.120;37.660;2022-10-16T15:31:38;15.96;62.48
64652;HTU21D;51062;45.120;37.660;2022-10-16T15:34:05;15.92;62.49
64652;HTU21D;51062;45.120;37.660;2022-10-16T15:36:33;15.88;62.47
64652;HTU21D;51062;45.120;37.660;2022-10-16T15:39:12;15.86;62.47
64652;HTU21D;51062;45.120;37.660;2022-10-16T15:41:38;15.83;62.46
64652;HTU21D;51062;45.120;37.660;2022-10-16T15:44:04;15.81;62.44
64652;HTU21D;51062;45.120;37.660;2022-10-16T15:46:30;15.78;62.44
64652;HTU21D;51062;45.120;37.660;2022-10-16T15:48:59;15.74;62.44
64652;HTU21D;51062;45.120;37.660;2022-10-16T15:51:26;15.71;62.46
64652;HTU21D;51062;45.120;37.660;2022-10-16T15:53:56;15.68;62.47
64652;HTU21D;51062;45.120;37.660;2022-10-16T15:56:23;15.67;62.47
64652;HTU21D;51062;45.120;37.660;2022-10-16T15:58:54;15.63;62.46
64652;HTU21D;51062;45.120;37.660;2022-10-16T16:01:20;15.61;62.47
64652;HTU21D;51062;45.120;37.660;2022-10-16T16:03:47;15.59;62.45
64652;HTU21D;51062;45.120;37.660;2022-10-16T16:06:14;15.56;62.44
64652;HTU21D;51062;45.120;37.660;2022-10-16T16:08:40;15.54;62.43
64652;HTU21D;51062;45.120;37.660;2022-10-16T16:11:12;0.00;0.00
64652;HTU21D;51062;45.120;37.660;2022-10-16T16:13:39;15.48;62.46
64652;HTU21D;51062;45.120;37.660;2022-10-16T16:16:10;0.00;0.00
64652;HTU21D;51062;45.120;37.660;2022-10-16T16:18:37;12.17;0.00
64652;HTU21D;51062;45.120;37.660;2022-10-16T16:21:04;15.39;62.47
64652;HTU21D;51062;45.120;37.660;2022-10-16T16:23:31;15.36;62.48
64652;HTU21D;51062;45.120;37.660;2022-10-16T16:28:36;0.00;0.00
64652;HTU21D;51062;45.120;37.660;2022-10-16T16:31:03;0.00;0.00
64652;HTU21D;51062;45.120;37.660;2022-10-16T16:33:29;15.26;62.46
64652;HTU21D;51062;45.120;37.660;2022-10-16T16:36:01;15.25;62.46
64652;HTU21D;51062;45.120;37.660;2022-10-16T16:38:29;15.21;0.00
64652;HTU21D;51062;45.120;37.660;2022-10-16T16:40:55;15.19;62.47
64652;HTU21D;51062;45.120;37.660;2022-10-16T16:43:26;15.15;62.47
64652;HTU21D;51062;45.120;37.660;2022-10-16T16:45:53;15.12;62.47
64652;HTU21D;51062;45.120;37.660;2022-10-16T16:48:20;15.09;62.47
64652;HTU21D;51062;45.120;37.660;2022-10-16T16:50:46;15.07;62.50
64652;HTU21D;51062;45.120;37.660;2022-10-16T16:53:12;15.03;62.51
64652;HTU21D;51062;45.120;37.660;2022-10-16T16:55:39;14.98;62.53
64652;HTU21D;51062;45.120;37.660;2022-10-16T16:58:05;14.95;62.57
64652;HTU21D;51062;45.120;37.660;2022-10-16T17:00:31;14.92;62.60
64652;HTU21D;51062;45.120;37.660;2022-10-16T17:02:57;14.86;62.60
64652;HTU21D;51062;45.120;37.660;2022-10-16T17:05:23;14.84;62.62
64652;HTU21D;51062;45.120;37.660;2022-10-16T17:07:49;14.80;62.63
64652;HTU21D;51062;45.120;37.660;2022-10-16T17:10:15;14.77;62.67
64652;HTU21D;51062;45.120;37.660;2022-10-16T17:12:41;14.73;62.69
64652;HTU21D;51062;45.120;37.660;2022-10-16T17:15:08;14.69;62.76
64652;HTU21D;51062;45.120;37.660;2022-10-16T17:17:34;14.66;62.80
64652;HTU21D;51062;45.120;37.660;2022-10-16T17:20:00;0.00;0.00